Time;durP1;ratioP1;P1;durP2;ratioP2;P2;SDS_P1;SDS_P2;PMS_P1;PMS_P2;Temp;Humidity;BMP_temperature;BMP_pressure;BME280_temperature;BME280_humidity;BME280_pressure;Samples;Min_cycle;Max_cycle;Signal;HPM_P1;HPM_P2
2023/05/10 00:02:24;;;;;;;46.95;29.92;;;15.30;99.90;;;;;;4965061;28;20046;-80
2023/05/10 00:04:50;;;;;;;38.67;26.15;;;15.30;99.90;;;;;;4967701;28;20081;-82
2023/05/10 00:07:18;;;;;;;45.55;29.60;;;15.30;99.90;;;;;;4951469;28;20027;-81
2023/05/10 00:09:43;;;;;;;41.67;27.83;;;15.30;99.90;;;;;;4952159;28;20026;-80
2023/05/10 00:12:09;;;;;;;47.88;29.23;;;15.40;99.90;;;;;;4949495;28;20041;-81
2023/05/10 00:14:35;;;;;;;48.85;31.25;;;15.40;99.90;;;;;;4966800;28;20030;-81
2023/05/10 00:17:01;;;;;;;50.15;30.13;;;15.40;99.90;;;;;;4964196;28;20373;-82
2023/05/10 00:19:26;;;;;;;58.50;34.13;;;15.40;99.90;;;;;;4962546;28;20047;-80
2023/05/10 00:21:53;;;;;;;58.53;34.03;;;15.40;99.90;;;;;;4967412;28;20065;-82
2023/05/10 00:24:18;;;;;;;59.33;35.53;;;15.40;99.90;;;;;;4948380;28;20019;-80
2023/05/10 00:26:44;;;;;;;58.70;34.15;;;15.40;99.90;;;;;;4948318;28;20031;-80
2023/05/10 00:29:10;;;;;;;57.42;33.22;;;15.40;99.90;;;;;;4966504;28;20034;-80
2023/05/10 00:31:35;;;;;;;57.20;32.88;;;15.50;99.90;;;;;;4966472;28;20110;-80
2023/05/10 00:34:01;;;;;;;61.42;36.63;;;15.50;99.90;;;;;;4967408;28;20043;-81
2023/05/10 00:36:27;;;;;;;66.88;38.67;;;15.50;99.90;;;;;;4950008;28;20019;-81
2023/05/10 00:38:53;;;;;;;64.53;36.83;;;15.50;99.90;;;;;;4965825;28;20030;-80
2023/05/10 00:41:18;;;;;;;67.80;40.70;;;15.40;99.90;;;;;;4949922;28;20052;-81
2023/05/10 00:43:44;;;;;;;68.25;40.70;;;15.40;99.90;;;;;;4932473;28;20519;-82
2023/05/10 00:46:10;;;;;;;77.32;42.83;;;15.40;99.90;;;;;;4965896;28;20027;-82
2023/05/10 00:48:38;;;;;;;75.35;43.70;;;15.40;99.90;;;;;;4964379;28;20432;-83
2023/05/10 00:51:04;;;;;;;73.90;44.55;;;15.50;99.90;;;;;;4965244;28;20069;-82
2023/05/10 00:53:32;;;;;;;62.53;37.80;;;15.40;99.90;;;;;;4965766;28;20486;-80
2023/05/10 00:55:59;;;;;;;80.78;47.70;;;15.40;99.90;;;;;;4964029;28;20474;-81
2023/05/10 00:58:28;;;;;;;73.30;43.65;;;15.40;99.90;;;;;;4966905;28;20105;-80
2023/05/10 01:00:54;;;;;;;79.18;47.03;;;15.40;99.90;;;;;;4966733;28;20565;-81
2023/05/10 01:03:20;;;;;;;80.00;46.70;;;15.40;99.90;;;;;;4965961;28;20041;-80
2023/05/10 01:05:46;;;;;;;82.30;48.17;;;15.40;99.90;;;;;;4963043;28;20030;-81
2023/05/10 01:08:12;;;;;;;84.55;48.63;;;15.40;99.90;;;;;;4965306;28;20019;-81
2023/05/10 01:10:37;;;;;;;88.07;50.53;;;15.40;99.90;;;;;;4964634;28;20372;-80
2023/05/10 01:13:03;;;;;;;85.50;50.15;;;15.30;99.90;;;;;;4964491;28;20034;-81
2023/05/10 01:15:30;;;;;;;80.80;48.28;;;15.30;99.90;;;;;;4962144;28;20896;-82
2023/05/10 01:17:56;;;;;;;84.30;49.30;;;15.30;99.90;;;;;;4965651;28;20469;-80
2023/05/10 01:20:23;;;;;;;84.95;50.03;;;15.30;99.90;;;;;;4968289;28;20045;-80
2023/05/10 01:22:51;;;;;;;92.70;51.33;;;15.30;99.90;;;;;;4967891;28;20624;-81
2023/05/10 01:25:27;;;;;;;88.10;50.17;;;15.30;99.90;;;;;;4966702;28;20041;-80
2023/05/10 01:28:32;;;;;;;87.40;48.65;;;15.30;99.90;;;;;;4973000;28;20113;-80
2023/05/10 01:31:07;;;;;;;98.25;53.30;;;15.20;99.90;;;;;;4978914;28;20027;-80
2023/05/10 01:34:02;;;;;;;88.85;49.63;;;15.30;99.90;;;;;;4974078;28;20019;-80
2023/05/10 01:36:45;;;;;;;84.85;47.20;;;15.30;99.90;;;;;;4951901;29;20035;-81
2023/05/10 01:39:20;;;;;;;90.82;51.65;;;15.20;99.90;;;;;;4951057;29;20035;-81
2023/05/10 01:42:03;;;;;;;92.65;54.03;;;15.30;99.90;;;;;;4952846;29;20073;-81
2023/05/10 01:44:46;;;;;;;78.70;44.78;;;15.20;99.90;;;;;;4949863;29;20328;-80
2023/05/10 01:47:25;;;;;;;94.57;54.47;;;15.20;99.90;;;;;;4950728;29;20033;-81
2023/05/10 01:49:53;;;;;;;96.40;51.28;;;15.20;99.90;;;;;;4951746;29;20517;-81
2023/05/10 01:52:37;;;;;;;90.35;49.80;;;15.20;99.90;;;;;;4951131;29;20027;-81
2023/05/10 01:55:07;;;;;;;89.05;51.45;;;15.20;99.90;;;;;;4952438;29;20105;-82
2023/05/10 01:57:35;;;;;;;;;;;15.20;99.90;;;;;;4951827;29;20935;-82
2023/05/10 02:00:04;;;;;;;89.03;47.90;;;15.20;99.90;;;;;;4932079;29;19919;-81
2023/05/10 02:02:33;;;;;;;79.95;45.90;;;15.20;99.90;;;;;;4951130;29;20051;-83
2023/05/10 02:05:00;;;;;;;80.97;45.53;;;15.20;99.90;;;;;;4949011;29;20031;-81
2023/05/10 02:07:28;;;;;;;67.25;38.28;;;15.20;99.90;;;;;;4947584;29;20405;-82
2023/05/10 02:09:54;;;;;;;86.20;46.63;;;15.20;99.90;;;;;;4951959;29;20163;-82
2023/05/10 02:12:21;;;;;;;82.45;44.40;;;15.20;99.90;;;;;;4951606;29;20039;-82
2023/05/10 02:14:47;;;;;;;94.53;47.90;;;15.20;99.90;;;;;;4954883;29;20023;-81
2023/05/10 02:17:17;;;;;;;85.97;44.42;;;15.10;99.90;;;;;;4946913;29;20041;-83
2023/05/10 02:19:45;;;;;;;79.75;42.00;;;15.10;99.90;;;;;;4950270;29;20054;-82
2023/05/10 02:22:11;;;;;;;76.43;41.95;;;15.20;99.90;;;;;;4948562;29;20571;-82
2023/05/10 02:24:38;;;;;;;80.55;44.55;;;15.20;99.90;;;;;;4948515;29;20059;-82
2023/05/10 02:27:05;;;;;;;79.25;44.20;;;15.10;99.90;;;;;;4950837;29;20110;-83
2023/05/10 02:29:33;;;;;;;79.45;41.92;;;15.20;99.90;;;;;;4933690;28;20027;-83
2023/05/10 02:32:00;;;;;;;86.32;43.47;;;15.10;99.90;;;;;;4929049;29;20042;-82
2023/05/10 02:34:26;;;;;;;85.93;43.08;;;15.10;99.90;;;;;;4932240;29;20059;-83
2023/05/10 02:36:53;;;;;;;85.47;43.20;;;15.10;99.90;;;;;;4948473;29;20058;-84
2023/05/10 02:39:20;;;;;;;93.88;46.08;;;15.00;99.90;;;;;;4946435;29;20378;-80
2023/05/10 02:41:47;;;;;;;82.28;42.53;;;15.00;99.90;;;;;;4946208;29;20121;-81
2023/05/10 02:44:15;;;;;;;85.50;41.30;;;15.00;99.90;;;;;;4947648;29;20024;-82
2023/05/10 02:46:41;;;;;;;96.28;47.42;;;15.00;99.90;;;;;;4945625;29;20034;-81
2023/05/10 02:49:07;;;;;;;93.88;49.00;;;14.90;99.90;;;;;;4947829;29;20020;-82
2023/05/10 02:51:37;;;;;;;99.35;49.45;;;15.00;99.90;;;;;;4947325;29;20020;-82
2023/05/10 02:54:10;;;;;;;106.70;49.67;;;15.00;99.90;;;;;;4944598;29;20038;-80
2023/05/10 02:56:40;;;;;;;103.93;49.97;;;14.90;99.90;;;;;;4947713;29;20035;-81
2023/05/10 02:59:06;;;;;;;102.20;48.47;;;14.90;99.90;;;;;;4945747;29;20051;-78
2023/05/10 03:01:32;;;;;;;107.45;49.85;;;14.90;99.90;;;;;;4948280;29;20078;-80
2023/05/10 03:03:59;;;;;;;102.18;50.33;;;14.80;99.90;;;;;;4948893;29;20038;-82
2023/05/10 03:06:24;;;;;;;90.63;46.53;;;14.90;99.90;;;;;;4948021;29;20066;-81
2023/05/10 03:08:50;;;;;;;100.95;51.05;;;14.90;99.90;;;;;;4922456;29;21396;-81
2023/05/10 03:11:53;;;;;;;104.82;51.20;;;14.90;99.90;;;;;;4950892;29;20023;-80
2023/05/10 03:14:22;;;;;;;103.78;50.70;;;14.90;99.90;;;;;;4946245;29;20028;-82
2023/05/10 03:17:16;;;;;;;95.65;48.95;;;15.00;99.90;;;;;;4949716;29;20394;-80
2023/05/10 03:19:54;;;;;;;95.13;47.50;;;14.90;99.90;;;;;;4949041;29;20456;-82
2023/05/10 03:22:32;;;;;;;101.57;52.55;;;14.90;99.90;;;;;;4951191;29;20023;-83
2023/05/10 03:25:00;;;;;;;111.10;54.67;;;14.90;99.90;;;;;;4946922;29;20372;-82
2023/05/10 03:27:27;;;;;;;108.18;52.53;;;14.90;99.90;;;;;;4950388;29;20053;-82
2023/05/10 03:29:54;;;;;;;98.50;51.10;;;14.90;99.90;;;;;;4929714;29;20028;-83
2023/05/10 03:32:20;;;;;;;109.78;52.33;;;14.90;99.90;;;;;;4948966;29;20023;-84
2023/05/10 03:34:45;;;;;;;94.85;50.22;;;14.90;99.90;;;;;;4955495;28;20553;-83
2023/05/10 03:37:11;;;;;;;92.38;49.90;;;14.90;99.90;;;;;;4969789;28;20545;-82
2023/05/10 03:39:37;;;;;;;82.53;46.40;;;15.00;99.90;;;;;;4970062;28;20029;-83
2023/05/10 03:42:02;;;;;;;79.82;44.97;;;14.80;99.90;;;;;;4974112;28;20113;-82
2023/05/10 03:44:28;;;;;;;93.25;53.13;;;14.80;99.90;;;;;;4982704;28;20384;-82
2023/05/10 03:46:54;;;;;;;86.13;48.22;;;14.70;99.90;;;;;;4978112;28;20720;-82
2023/05/10 03:49:19;;;;;;;80.13;46.10;;;14.60;99.90;;;;;;4975605;28;20032;-83
2023/05/10 03:51:45;;;;;;;98.13;53.30;;;14.60;99.90;;;;;;4970893;28;20166;-81
2023/05/10 03:54:10;;;;;;;105.82;56.42;;;14.60;99.90;;;;;;4969313;28;20461;-82
2023/05/10 03:56:36;;;;;;;105.68;54.30;;;14.50;99.90;;;;;;4948897;28;20081;-80
2023/05/10 03:59:07;;;;;;;91.22;49.35;;;14.50;99.90;;;;;;4968561;28;20027;-82
2023/05/10 04:01:33;;;;;;;86.72;48.05;;;14.50;99.90;;;;;;4967432;28;20129;-81
2023/05/10 04:03:59;;;;;;;96.93;53.05;;;14.50;99.90;;;;;;4969803;28;20037;-79
2023/05/10 04:06:24;;;;;;;82.95;46.22;;;14.50;99.90;;;;;;4965352;28;20110;-81
2023/05/10 04:08:50;;;;;;;81.78;45.95;;;14.50;99.90;;;;;;4971362;28;20031;-82
2023/05/10 04:11:16;;;;;;;84.10;47.45;;;14.50;99.90;;;;;;4969582;28;20046;-81
2023/05/10 04:13:42;;;;;;;82.70;46.85;;;14.50;99.90;;;;;;4950264;28;20022;-82
2023/05/10 04:16:08;;;;;;;84.63;46.88;;;14.60;99.90;;;;;;4967599;28;20026;-80
2023/05/10 04:18:34;;;;;;;77.72;42.33;;;14.60;99.90;;;;;;4967599;28;20038;-81
2023/05/10 04:21:00;;;;;;;82.65;45.58;;;14.60;99.90;;;;;;4966735;28;20035;-80
2023/05/10 04:23:27;;;;;;;95.25;47.92;;;14.60;99.90;;;;;;4968284;28;20493;-81
2023/05/10 04:25:58;;;;;;;87.47;47.70;;;14.60;99.90;;;;;;4974946;28;20038;-80
2023/05/10 04:28:24;;;;;;;83.15;43.13;;;14.70;99.90;;;;;;4971594;28;20087;-82
2023/05/10 04:30:49;;;;;;;75.03;40.47;;;14.70;99.90;;;;;;4969545;28;20035;-81
2023/05/10 04:33:15;;;;;;;84.07;44.85;;;14.60;99.90;;;;;;4969338;28;20125;-82
2023/05/10 04:35:41;;;;;;;90.57;48.17;;;14.50;99.90;;;;;;4948019;28;20047;-80
2023/05/10 04:38:06;;;;;;;82.65;44.35;;;14.40;99.90;;;;;;4969053;28;20027;-80
2023/05/10 04:40:32;;;;;;;88.88;46.25;;;14.50;99.90;;;;;;4963462;28;20065;-81
2023/05/10 04:42:58;;;;;;;88.35;44.47;;;14.50;99.90;;;;;;4968107;28;20030;-80
2023/05/10 04:45:23;;;;;;;84.60;42.28;;;14.50;99.90;;;;;;4966260;28;20490;-80
2023/05/10 04:47:50;;;;;;;76.38;41.63;;;14.50;99.90;;;;;;4967073;28;20053;-81
2023/05/10 04:50:15;;;;;;;95.75;48.47;;;14.50;99.90;;;;;;4966570;28;20027;-79
2023/05/10 04:52:42;;;;;;;85.65;43.22;;;14.40;99.90;;;;;;4949411;28;20035;-79
2023/05/10 04:55:09;;;;;;;95.57;48.20;;;14.50;99.90;;;;;;4935678;28;20023;-79
2023/05/10 04:57:35;;;;;;;81.60;41.10;;;14.50;99.90;;;;;;4969504;28;20027;-79
2023/05/10 05:00:01;;;;;;;90.28;48.30;;;14.50;99.90;;;;;;4969451;28;20037;-79
2023/05/10 05:02:27;;;;;;;90.25;46.97;;;14.60;99.90;;;;;;4940093;28;20053;-81
2023/05/10 05:04:52;;;;;;;87.30;46.53;;;14.60;99.90;;;;;;4970477;28;20027;-80
2023/05/10 05:07:18;;;;;;;85.18;44.83;;;14.60;99.90;;;;;;4947937;28;20086;-80
2023/05/10 05:09:43;;;;;;;85.20;46.22;;;14.60;99.90;;;;;;4970202;28;20441;-80
2023/05/10 05:12:13;;;;;;;88.03;46.28;;;14.70;99.90;;;;;;4971091;28;20429;-81
2023/05/10 05:14:40;;;;;;;85.72;45.13;;;14.70;99.90;;;;;;4966733;28;20038;-80
2023/05/10 05:17:06;;;;;;;89.72;46.10;;;14.80;99.90;;;;;;4968369;28;20154;-80
2023/05/10 05:19:33;;;;;;;88.50;45.67;;;14.80;99.90;;;;;;4948989;28;20027;-79
2023/05/10 05:21:59;;;;;;;80.57;43.13;;;14.90;99.90;;;;;;4969970;28;20039;-79
2023/05/10 05:24:24;;;;;;;86.47;46.25;;;14.90;99.90;;;;;;4969641;28;20481;-80
2023/05/10 05:26:50;;;;;;;85.10;45.28;;;15.00;99.90;;;;;;4969524;28;20031;-81
2023/05/10 05:29:15;;;;;;;86.22;45.22;;;15.00;99.90;;;;;;4972373;28;20537;-78
2023/05/10 05:31:41;;;;;;;80.28;42.50;;;15.00;99.90;;;;;;4975739;28;20161;-79
2023/05/10 05:34:07;;;;;;;86.68;43.67;;;15.00;99.90;;;;;;4975404;28;20047;-81
2023/05/10 05:36:35;;;;;;;79.03;42.47;;;15.00;99.90;;;;;;4977796;28;20066;-80
2023/05/10 05:39:01;;;;;;;76.85;43.75;;;15.00;99.90;;;;;;4975770;28;20063;-81
2023/05/10 05:41:27;;;;;;;87.32;44.60;;;15.00;99.90;;;;;;4973447;28;20070;-80
2023/05/10 05:43:52;;;;;;;76.55;42.20;;;15.00;99.90;;;;;;4970019;28;20138;-79
2023/05/10 05:46:18;;;;;;;81.70;43.47;;;15.00;99.90;;;;;;4970541;28;20019;-81
2023/05/10 05:48:43;;;;;;;74.78;40.70;;;15.00;99.90;;;;;;4974479;28;20027;-82
2023/05/10 05:51:09;;;;;;;77.28;42.30;;;15.00;99.90;;;;;;4977782;28;20034;-81
2023/05/10 05:53:35;;;;;;;77.60;42.55;;;15.00;99.90;;;;;;4972745;28;20042;-81
2023/05/10 05:56:01;;;;;;;79.78;43.20;;;15.10;99.90;;;;;;4972770;28;20363;-79
2023/05/10 05:58:27;;;;;;;63.22;37.95;;;15.10;99.90;;;;;;4975838;28;20046;-80
2023/05/10 06:00:53;;;;;;;72.25;40.10;;;15.10;99.90;;;;;;4982754;28;20500;-81
2023/05/10 06:03:19;;;;;;;73.28;40.67;;;15.10;99.90;;;;;;4977135;28;20019;-82
2023/05/10 06:05:44;;;;;;;75.18;40.53;;;15.10;99.90;;;;;;4969609;28;20054;-80
2023/05/10 06:08:10;;;;;;;77.18;41.67;;;15.10;99.90;;;;;;4943758;28;20023;-82
2023/05/10 06:10:36;;;;;;;75.68;38.80;;;15.00;99.90;;;;;;4953303;28;20483;-81
2023/05/10 06:13:02;;;;;;;66.97;38.58;;;15.00;99.90;;;;;;4969738;28;20470;-82
2023/05/10 06:15:27;;;;;;;74.20;39.90;;;15.00;99.90;;;;;;4969754;28;20031;-81
2023/05/10 06:17:53;;;;;;;80.82;40.75;;;15.10;99.90;;;;;;4961789;28;20131;-81
2023/05/10 06:20:19;;;;;;;83.63;44.15;;;15.10;99.90;;;;;;4950794;28;20019;-82
2023/05/10 06:22:45;;;;;;;79.18;41.95;;;15.10;99.90;;;;;;4968583;28;20026;-82
2023/05/10 06:25:11;;;;;;;93.15;45.03;;;15.10;99.90;;;;;;4969067;28;20035;-80
2023/05/10 06:27:37;;;;;;;94.13;46.38;;;15.10;99.90;;;;;;4950861;28;20027;-81
2023/05/10 06:30:03;;;;;;;76.47;40.38;;;15.10;99.90;;;;;;4976133;28;20031;-81
2023/05/10 06:32:29;;;;;;;80.32;40.83;;;15.00;99.90;;;;;;4970067;28;20057;-80
2023/05/10 06:34:54;;;;;;;76.07;38.70;;;15.00;99.90;;;;;;4953008;28;20067;-79
2023/05/10 06:37:20;;;;;;;80.82;43.65;;;15.00;99.90;;;;;;4965672;28;20028;-80
2023/05/10 06:39:45;;;;;;;68.20;33.85;;;14.90;99.90;;;;;;4969025;28;20023;-82
2023/05/10 06:42:11;;;;;;;82.65;43.78;;;14.90;99.90;;;;;;4969222;28;20054;-81
2023/05/10 06:44:37;;;;;;;80.70;39.22;;;14.90;99.90;;;;;;4968096;28;20033;-80
2023/05/10 06:47:03;;;;;;;74.57;39.83;;;14.90;99.90;;;;;;4952891;28;20389;-80
2023/05/10 06:49:29;;;;;;;80.55;42.80;;;14.90;99.90;;;;;;4955288;28;20023;-80
2023/05/10 06:51:56;;;;;;;81.15;44.15;;;14.90;99.90;;;;;;4969014;28;20055;-80
2023/05/10 06:54:22;;;;;;;78.95;41.75;;;14.90;99.90;;;;;;4969937;28;20110;-80
2023/05/10 06:56:48;;;;;;;77.97;41.35;;;15.00;99.90;;;;;;4966962;28;20023;-81
2023/05/10 06:59:16;;;;;;;77.82;43.20;;;15.00;99.90;;;;;;4971112;28;20045;-81
2023/05/10 07:01:42;;;;;;;86.82;48.15;;;15.00;99.90;;;;;;4972431;28;20517;-81
2023/05/10 07:04:12;;;;;;;84.60;46.08;;;15.10;99.90;;;;;;4970820;28;20031;-81
2023/05/10 07:06:38;;;;;;;75.68;44.25;;;15.10;99.90;;;;;;4972961;28;20046;-81
2023/05/10 07:09:03;;;;;;;80.63;44.80;;;15.10;99.90;;;;;;4964961;28;20053;-81
2023/05/10 07:11:29;;;;;;;74.35;43.55;;;15.20;99.90;;;;;;4969167;28;20031;-82
2023/05/10 07:13:56;;;;;;;71.70;41.83;;;15.20;99.90;;;;;;4968944;28;20031;-80
2023/05/10 07:16:21;;;;;;;84.25;47.45;;;15.20;99.90;;;;;;4964895;28;20046;-79
2023/05/10 07:18:47;;;;;;;78.85;44.65;;;15.10;99.90;;;;;;4965375;28;20054;-81
2023/05/10 07:21:12;;;;;;;87.45;48.25;;;15.00;99.90;;;;;;4966909;28;20497;-81
2023/05/10 07:23:38;;;;;;;87.57;45.97;;;15.10;99.90;;;;;;4965395;28;20102;-80
2023/05/10 07:26:04;;;;;;;82.43;46.25;;;15.00;99.90;;;;;;4962444;28;20106;-78
2023/05/10 07:28:30;;;;;;;89.15;47.58;;;15.00;99.90;;;;;;4946526;28;20023;-79
2023/05/10 07:30:56;;;;;;;88.20;48.47;;;15.10;99.90;;;;;;4965364;28;20035;-79
2023/05/10 07:33:22;;;;;;;87.25;45.70;;;15.10;99.90;;;;;;4941053;28;20027;-80
2023/05/10 07:35:47;;;;;;;92.00;49.03;;;15.10;99.90;;;;;;4946036;28;20129;-80
2023/05/10 07:38:13;;;;;;;87.97;44.67;;;15.30;99.90;;;;;;4965647;28;20062;-80
2023/05/10 07:40:39;;;;;;;88.22;45.30;;;15.30;99.90;;;;;;4948574;28;20505;-79
2023/05/10 07:43:05;;;;;;;76.95;40.22;;;15.40;99.90;;;;;;4964514;28;20046;-79
2023/05/10 07:45:30;;;;;;;80.00;41.20;;;15.50;99.90;;;;;;4949394;28;20019;-79
2023/05/10 07:47:56;;;;;;;83.45;44.80;;;15.60;99.90;;;;;;4947802;28;20121;-79
2023/05/10 07:50:22;;;;;;;80.38;43.53;;;15.60;99.90;;;;;;4963852;28;20034;-79
2023/05/10 07:52:48;;;;;;;84.15;45.75;;;15.60;99.90;;;;;;4963907;28;20393;-79
2023/05/10 07:55:14;;;;;;;86.85;42.30;;;15.60;99.90;;;;;;4961807;28;20027;-79
2023/05/10 07:57:40;;;;;;;86.35;45.15;;;15.60;99.90;;;;;;4965782;28;20026;-81
2023/05/10 08:00:07;;;;;;;90.25;47.20;;;15.60;99.90;;;;;;4960843;28;20070;-78
2023/05/10 08:02:34;;;;;;;79.90;45.17;;;15.60;99.90;;;;;;4962590;28;20038;-79
2023/05/10 08:05:00;;;;;;;81.72;42.38;;;15.70;99.90;;;;;;4964140;28;20019;-78
2023/05/10 08:07:26;;;;;;;78.43;42.90;;;15.60;99.90;;;;;;4947303;28;20503;-80
2023/05/10 08:09:51;;;;;;;79.05;42.83;;;15.70;99.90;;;;;;4966820;28;20115;-79
2023/05/10 08:12:17;;;;;;;76.00;42.53;;;15.60;99.90;;;;;;4967743;28;20270;-80
2023/05/10 08:14:42;;;;;;;67.32;38.28;;;15.60;99.90;;;;;;4968210;28;20078;-79
2023/05/10 08:17:08;;;;;;;67.03;39.35;;;15.70;99.90;;;;;;4967361;28;20021;-77
2023/05/10 08:19:34;;;;;;;71.85;39.38;;;15.70;99.90;;;;;;4965786;28;20033;-77
2023/05/10 08:22:00;;;;;;;76.60;41.10;;;15.80;99.90;;;;;;4964108;28;20034;-79
2023/05/10 08:24:25;;;;;;;67.60;39.88;;;15.90;99.90;;;;;;4948102;28;20508;-78
2023/05/10 08:26:51;;;;;;;66.05;38.35;;;15.90;99.90;;;;;;4964716;28;20034;-77
2023/05/10 08:29:17;;;;;;;71.32;38.72;;;15.90;99.90;;;;;;4961146;28;20027;-77
2023/05/10 08:31:42;;;;;;;68.35;38.63;;;15.90;99.90;;;;;;4945988;28;20043;-77
2023/05/10 08:34:08;;;;;;;60.42;36.67;;;15.90;99.90;;;;;;4959583;28;20047;-76
2023/05/10 08:36:33;;;;;;;55.58;34.63;;;15.90;99.90;;;;;;4964584;28;20046;-77
2023/05/10 08:39:00;;;;;;;56.05;33.28;;;15.90;99.90;;;;;;4963157;28;20565;-76
2023/05/10 08:41:26;;;;;;;45.05;27.13;;;15.90;99.90;;;;;;4962620;28;20031;-78
2023/05/10 08:43:53;;;;;;;46.15;25.85;;;15.80;99.90;;;;;;4946929;28;20517;-77
2023/05/10 08:46:20;;;;;;;37.55;24.20;;;15.90;99.90;;;;;;4960283;28;20480;-75
2023/05/10 08:48:47;;;;;;;27.17;15.57;;;15.90;99.90;;;;;;4964044;28;20390;-77
2023/05/10 08:51:16;;;;;;;29.50;19.05;;;15.90;99.90;;;;;;4962237;28;20025;-77
2023/05/10 08:53:42;;;;;;;38.65;24.48;;;16.00;99.90;;;;;;4943185;28;20019;-75
2023/05/10 08:56:08;;;;;;;40.80;25.20;;;15.90;99.90;;;;;;4963068;28;20027;-76
2023/05/10 08:58:36;;;;;;;37.90;21.77;;;15.90;99.90;;;;;;4961306;28;20027;-75
2023/05/10 09:01:03;;;;;;;36.45;23.17;;;15.80;99.90;;;;;;4961071;28;20035;-77
2023/05/10 09:03:29;;;;;;;31.73;20.90;;;15.90;99.90;;;;;;4964770;28;20402;-75
2023/05/10 09:05:58;;;;;;;30.27;20.50;;;15.90;99.90;;;;;;4961847;28;20031;-77
2023/05/10 09:08:27;;;;;;;31.73;19.38;;;16.00;99.90;;;;;;4957811;28;20102;-76
2023/05/10 09:10:54;;;;;;;30.02;17.40;;;16.10;99.90;;;;;;4961869;28;20037;-76
2023/05/10 09:13:22;;;;;;;20.40;13.10;;;16.20;99.90;;;;;;4962801;28;21194;-76
2023/05/10 09:15:48;;;;;;;26.27;17.17;;;16.20;99.90;;;;;;4962162;28;20109;-77
2023/05/10 09:18:14;;;;;;;20.17;13.98;;;16.30;99.90;;;;;;4960985;28;20025;-78
2023/05/10 09:20:40;;;;;;;25.45;15.63;;;16.30;99.90;;;;;;4963941;28;20060;-79
2023/05/10 09:23:06;;;;;;;22.05;14.25;;;16.40;99.90;;;;;;4961974;28;20844;-77
2023/05/10 09:25:35;;;;;;;18.27;13.73;;;16.50;99.90;;;;;;4962586;28;20037;-78
2023/05/10 09:28:01;;;;;;;19.85;12.43;;;16.60;99.90;;;;;;4958559;28;20033;-77
2023/05/10 09:30:31;;;;;;;19.38;12.38;;;16.60;99.90;;;;;;4946995;28;20396;-78
2023/05/10 09:32:58;;;;;;;20.23;13.27;;;16.70;99.90;;;;;;4962631;28;20477;-77
2023/05/10 09:35:26;;;;;;;21.88;13.10;;;16.70;99.40;;;;;;4961524;28;20047;-77
2023/05/10 09:37:54;;;;;;;19.00;13.30;;;16.70;99.40;;;;;;4947782;28;20028;-78
2023/05/10 09:40:25;;;;;;;20.25;13.10;;;16.70;99.50;;;;;;4963691;28;20031;-77
2023/05/10 09:42:58;;;;;;;21.85;13.30;;;16.80;99.40;;;;;;4946792;28;20045;-78
2023/05/10 09:45:26;;;;;;;19.33;13.15;;;16.90;99.40;;;;;;4942235;28;20022;-76
2023/05/10 09:47:52;;;;;;;16.35;10.85;;;16.90;99.50;;;;;;4966535;28;20031;-77
2023/05/10 09:50:20;;;;;;;9.50;6.32;;;16.90;99.00;;;;;;4950815;28;20022;-78
2023/05/10 09:52:51;;;;;;;14.98;8.45;;;17.00;99.40;;;;;;4949872;28;20034;-77
2023/05/10 09:55:19;;;;;;;15.18;7.97;;;17.10;99.40;;;;;;4962544;28;20489;-77
2023/05/10 09:57:46;;;;;;;21.83;13.10;;;17.10;99.50;;;;;;4967256;28;20358;-78
2023/05/10 10:00:19;;;;;;;17.08;11.43;;;17.20;98.90;;;;;;4966632;28;20114;-76
2023/05/10 10:02:47;;;;;;;19.30;11.68;;;17.20;98.60;;;;;;4966851;28;20038;-76
2023/05/10 10:05:13;;;;;;;14.70;9.40;;;17.30;98.30;;;;;;4966039;28;20110;-76
2023/05/10 10:07:39;;;;;;;15.07;10.27;;;17.30;98.10;;;;;;4967600;28;20576;-76
2023/05/10 10:10:05;;;;;;;20.17;12.73;;;17.30;98.10;;;;;;4961243;28;20385;-77
2023/05/10 10:12:31;;;;;;;15.75;11.13;;;17.30;98.20;;;;;;4968474;28;20086;-76
2023/05/10 10:14:59;;;;;;;14.70;10.13;;;17.30;98.20;;;;;;4966607;28;20027;-74
2023/05/10 10:17:27;;;;;;;15.68;10.82;;;17.30;98.10;;;;;;4948433;28;20378;-75
2023/05/10 10:19:54;;;;;;;16.50;11.00;;;17.20;98.10;;;;;;4966213;28;20023;-77
2023/05/10 10:22:20;;;;;;;17.20;11.68;;;17.20;98.30;;;;;;4965586;28;20038;-77
2023/05/10 10:24:45;;;;;;;19.75;12.25;;;17.20;98.30;;;;;;4967192;28;20031;-76
2023/05/10 10:27:35;;;;;;;16.40;11.52;;;17.30;98.30;;;;;;4966239;28;20126;-77
2023/05/10 10:30:27;;;;;;;18.80;12.52;;;17.30;98.30;;;;;;4964000;28;20023;-76
2023/05/10 10:33:02;;;;;;;13.85;9.52;;;17.20;97.90;;;;;;4967934;28;20043;-75
2023/05/10 10:35:30;;;;;;;17.50;11.13;;;17.20;98.40;;;;;;4964288;28;20081;-76
2023/05/10 10:37:57;;;;;;;18.63;13.00;;;17.20;98.10;;;;;;4965371;28;20035;-74
2023/05/10 10:40:25;;;;;;;13.98;9.98;;;17.30;98.40;;;;;;4947073;28;20023;-75
2023/05/10 10:42:51;;;;;;;19.58;13.70;;;17.30;98.10;;;;;;4948876;28;20038;-76
2023/05/10 10:45:16;;;;;;;20.77;13.80;;;17.40;97.80;;;;;;4946686;28;20041;-75
2023/05/10 10:47:43;;;;;;;19.15;12.50;;;17.40;97.30;;;;;;4966004;28;20034;-76
2023/05/10 10:50:10;;;;;;;21.92;14.38;;;17.40;97.60;;;;;;4949168;28;20077;-74
2023/05/10 10:52:45;;;;;;;16.75;10.90;;;17.40;97.50;;;;;;4966121;28;21127;-75
2023/05/10 10:55:11;;;;;;;18.65;12.93;;;17.50;97.40;;;;;;4965942;28;20038;-76
2023/05/10 10:57:48;;;;;;;19.95;12.15;;;17.40;97.30;;;;;;4967353;28;20026;-76
2023/05/10 11:00:31;;;;;;;19.30;13.82;;;17.40;96.90;;;;;;4966394;28;20034;-75
2023/05/10 11:02:57;;;;;;;19.70;12.57;;;17.30;96.70;;;;;;4964439;28;20758;-76
2023/05/10 11:05:45;;;;;;;19.73;12.50;;;17.20;96.80;;;;;;4964051;28;20018;-75
2023/05/10 11:08:12;;;;;;;16.95;12.75;;;17.10;97.20;;;;;;4944346;28;20037;-74
2023/05/10 11:10:39;;;;;;;17.67;12.00;;;17.20;97.50;;;;;;4946392;28;20035;-75
2023/05/10 11:13:06;;;;;;;17.55;12.43;;;17.30;97.70;;;;;;4946458;28;20049;-76
2023/05/10 11:15:37;;;;;;;18.33;11.65;;;17.40;97.80;;;;;;4948427;28;20033;-77
2023/05/10 11:18:21;;;;;;;13.98;8.50;;;17.60;97.50;;;;;;4966829;28;20568;-76
2023/05/10 11:21:08;;;;;;;18.83;12.45;;;17.70;96.90;;;;;;4964869;28;20580;-77
2023/05/10 11:23:54;;;;;;;18.77;11.60;;;17.80;96.80;;;;;;4939858;28;20449;-77
2023/05/10 11:26:22;;;;;;;20.73;11.80;;;18.00;95.80;;;;;;4943088;28;20166;-77
2023/05/10 11:28:49;;;;;;;14.25;10.18;;;18.10;96.00;;;;;;4960354;28;20034;-76
2023/05/10 11:31:19;;;;;;;12.73;8.73;;;18.20;96.00;;;;;;4965056;28;20060;-75
2023/05/10 11:33:48;;;;;;;12.70;9.05;;;18.30;95.80;;;;;;4961318;28;20025;-76
2023/05/10 11:36:23;;;;;;;12.57;8.90;;;18.10;95.00;;;;;;4962963;28;20536;-78
2023/05/10 11:38:48;;;;;;;18.05;10.93;;;18.10;95.40;;;;;;4960743;28;20086;-75
2023/05/10 11:41:17;;;;;;;13.30;9.27;;;18.20;95.00;;;;;;4965259;28;20046;-76
2023/05/10 11:43:42;;;;;;;12.75;9.77;;;18.30;95.20;;;;;;4969287;28;21327;-77
2023/05/10 11:46:11;;;;;;;13.73;9.23;;;18.30;94.80;;;;;;4953340;28;20034;-77
2023/05/10 11:48:39;;;;;;;13.98;8.90;;;18.30;94.60;;;;;;4971324;28;20026;-78
2023/05/10 11:51:06;;;;;;;13.75;9.95;;;18.30;95.10;;;;;;4970500;28;20089;-77
2023/05/10 11:53:32;;;;;;;10.20;7.30;;;18.40;94.90;;;;;;4964416;28;20998;-77
2023/05/10 11:56:10;;;;;;;16.85;10.02;;;18.40;95.00;;;;;;4962711;28;20567;-79
2023/05/10 11:58:37;;;;;;;11.35;8.50;;;18.50;95.20;;;;;;4965904;28;20498;-76
2023/05/10 12:01:04;;;;;;;14.95;9.27;;;18.40;94.70;;;;;;4960269;28;20055;-76
2023/05/10 12:03:31;;;;;;;12.05;9.25;;;18.50;94.60;;;;;;4962073;28;20026;-78
2023/05/10 12:05:58;;;;;;;14.82;10.27;;;18.50;94.70;;;;;;4965190;28;20031;-76
2023/05/10 12:08:26;;;;;;;14.75;8.98;;;18.50;94.50;;;;;;4964170;28;20051;-79
2023/05/10 12:10:53;;;;;;;16.50;10.68;;;18.60;95.00;;;;;;4965530;28;20515;-77
2023/05/10 12:13:20;;;;;;;16.58;10.43;;;18.80;95.30;;;;;;4950868;28;20101;-78
2023/05/10 12:15:47;;;;;;;16.10;10.98;;;19.00;94.80;;;;;;4962246;28;20027;-78
2023/05/10 12:18:23;;;;;;;13.32;8.55;;;19.00;93.70;;;;;;4963242;28;20500;-78
2023/05/10 12:20:51;;;;;;;11.40;7.43;;;19.10;94.20;;;;;;4964558;28;20038;-77
2023/05/10 12:23:16;;;;;;;11.52;7.53;;;19.30;94.00;;;;;;4960848;28;20035;-78
2023/05/10 12:25:43;;;;;;;13.18;8.30;;;19.40;93.50;;;;;;4963748;28;20429;-76
2023/05/10 12:28:09;;;;;;;17.02;9.43;;;19.50;93.80;;;;;;4942385;28;20077;-78
2023/05/10 12:30:36;;;;;;;11.95;7.57;;;19.60;94.10;;;;;;4946660;28;20720;-76
2023/05/10 12:33:07;;;;;;;10.27;6.95;;;19.60;93.30;;;;;;4947268;28;20023;-77